createdAt,value
2023-03-01T00:01:11.845Z,59.71
2023-03-01T00:03:38.667Z,60.54
2023-03-01T00:06:06.850Z,61.76
2023-03-01T00:08:34.740Z,61.83
2023-03-01T00:11:26.349Z,63.06
2023-03-01T00:13:55.878Z,62.06
2023-03-01T00:16:27.199Z,60.25
2023-03-01T00:18:55.691Z,62.03
2023-03-01T00:21:23.293Z,62.11
2023-03-01T00:23:50.479Z,60.40
2023-03-01T00:26:18.961Z,61.85
2023-03-01T00:28:46.250Z,59.92
2023-03-01T00:31:16.215Z,61.73
2023-03-01T00:33:43.736Z,61.06
2023-03-01T00:36:11.781Z,63.19
2023-03-01T00:38:40.009Z,61.69
2023-03-01T00:41:12.779Z,63.62
2023-03-01T00:43:39.366Z,61.81
2023-03-01T00:46:08.894Z,63.39
2023-03-01T00:48:35.952Z,61.52
2023-03-01T00:51:17.244Z,60.41
2023-03-01T00:53:44.844Z,63.25
2023-03-01T00:56:13.280Z,62.69
2023-03-01T00:58:40.408Z,62.17
2023-03-01T01:01:19.701Z,62.81
2023-03-01T01:03:48.567Z,64.11
2023-03-01T01:06:20.152Z,65.34
2023-03-01T01:08:47.092Z,64.83
2023-03-01T01:11:14.629Z,62.84
2023-03-01T01:13:41.670Z,64.26
2023-03-01T01:16:09.454Z,67.82
2023-03-01T01:18:36.443Z,66.99
2023-03-01T01:21:08.625Z,64.96
2023-03-01T01:23:35.228Z,65.64
2023-03-01T01:26:07.207Z,66.54
2023-03-01T01:28:33.789Z,67.24
2023-03-01T01:31:00.474Z,67.07
2023-03-01T01:33:27.894Z,66.35
2023-03-01T01:35:54.768Z,67.38
2023-03-01T01:38:22.508Z,68.67
2023-03-01T01:40:51.035Z,66.53
2023-03-01T01:43:24.818Z,72.25
2023-03-01T01:45:52.304Z,66.02
2023-03-01T01:48:23.173Z,70.56
2023-03-01T01:51:00.185Z,71.70
2023-03-01T01:53:27.389Z,72.24
2023-03-01T01:55:58.180Z,68.91
2023-03-01T01:58:26.859Z,67.24
2023-03-01T02:00:54.060Z,69.54
2023-03-01T02:03:34.294Z,71.52
2023-03-01T02:06:22.143Z,70.40
2023-03-01T02:08:53.617Z,68.88
2023-03-01T02:11:20.423Z,67.67
2023-03-01T02:13:48.214Z,66.81
2023-03-01T02:16:16.752Z,67.39
2023-03-01T02:18:45.904Z,68.33
2023-03-01T02:21:36.816Z,73.93
2023-03-01T02:24:14.705Z,76.04
2023-03-01T02:26:49.653Z,67.97
2023-03-01T02:29:16.295Z,70.41
2023-03-01T02:31:42.957Z,70.50
2023-03-01T02:34:18.228Z,73.32
2023-03-01T02:36:49.652Z,70.92
2023-03-01T02:39:20.786Z,70.44
2023-03-01T02:41:51.234Z,71.14
2023-03-01T02:44:18.010Z,71.39
2023-03-01T02:46:49.275Z,69.84
2023-03-01T02:49:25.625Z,68.86
2023-03-01T02:52:20.835Z,68.35
2023-03-01T02:54:53.272Z,68.87
2023-03-01T02:57:20.786Z,69.03
2023-03-01T02:59:47.586Z,71.57
2023-03-01T03:02:37.176Z,71.03
2023-03-01T03:05:09.373Z,71.76
2023-03-01T03:07:41.118Z,73.98
2023-03-01T03:10:14.186Z,72.43
2023-03-01T03:12:41.452Z,70.40
2023-03-01T03:15:10.186Z,70.52
2023-03-01T03:17:37.876Z,70.47
2023-03-01T03:20:06.491Z,70.97
2023-03-01T03:22:34.950Z,70.28
2023-03-01T03:25:01.410Z,70.96
2023-03-01T03:27:29.450Z,70.28
2023-03-01T03:29:55.967Z,73.14
2023-03-01T03:32:22.531Z,71.64
2023-03-01T03:34:50.150Z,71.05
2023-03-01T03:37:35.285Z,71.40
2023-03-01T03:40:01.906Z,71.29
2023-03-01T03:42:28.393Z,70.40
2023-03-01T03:44:54.983Z,74.08
2023-03-01T03:47:21.599Z,72.14
2023-03-01T03:49:48.101Z,68.87
2023-03-01T03:52:14.670Z,68.20
2023-03-01T03:54:41.758Z,70.36
2023-03-01T03:57:08.450Z,69.09
2023-03-01T03:59:35.025Z,68.21
2023-03-01T04:02:01.878Z,70.93
2023-03-01T04:04:28.479Z,71.29
2023-03-01T04:06:55.014Z,70.94
2023-03-01T04:09:21.725Z,71.46
2023-03-01T04:11:48.259Z,73.37
2023-03-01T04:14:14.721Z,73.88
2023-03-01T04:16:41.208Z,71.93
2023-03-01T04:19:07.858Z,70.33
2023-03-01T04:21:34.380Z,69.09
2023-03-01T04:24:00.838Z,68.75
2023-03-01T04:26:28.300Z,71.18
2023-03-01T04:28:55.095Z,72.55
2023-03-01T04:31:22.776Z,72.19
2023-03-01T04:33:52.384Z,71.11
2023-03-01T04:36:20.743Z,72.74
2023-03-01T04:38:48.438Z,72.83
2023-03-01T04:41:18.424Z,70.40
2023-03-01T04:43:45.987Z,71.04
2023-03-01T04:46:15.739Z,70.35
2023-03-01T04:48:44.161Z,70.39
2023-03-01T04:51:14.364Z,71.82
2023-03-01T04:53:42.255Z,71.87
2023-03-01T04:56:09.279Z,71.50
2023-03-01T04:58:35.854Z,72.44
2023-03-01T05:01:02.720Z,72.56
2023-03-01T05:03:29.756Z,74.30
2023-03-01T05:06:00.696Z,71.45
2023-03-01T05:08:27.911Z,72.07
2023-03-01T05:10:55.492Z,71.64
2023-03-01T05:13:22.561Z,70.65
2023-03-01T05:15:55.861Z,72.34
2023-03-01T05:18:27.313Z,69.82
2023-03-01T05:21:02.174Z,71.22
2023-03-01T05:23:28.888Z,71.65
2023-03-01T05:25:58.273Z,69.16
2023-03-01T05:28:25.162Z,70.91
2023-03-01T05:30:52.697Z,71.25
2023-03-01T05:33:20.049Z,73.39
2023-03-01T05:35:46.625Z,72.48
2023-03-01T05:38:17.078Z,70.14
2023-03-01T05:40:45.617Z,73.54
2023-03-01T05:43:14.555Z,73.54
2023-03-01T05:45:41.816Z,75.27
2023-03-01T05:48:10.043Z,76.05
2023-03-01T05:50:40.181Z,74.28
2023-03-01T05:53:17.548Z,73.72
2023-03-01T05:55:45.224Z,71.14
2023-03-01T05:58:15.143Z,73.74
2023-03-01T06:00:43.193Z,71.09
2023-03-01T06:03:11.734Z,69.77
2023-03-01T06:05:39.158Z,70.54
2023-03-01T06:08:06.313Z,73.36
2023-03-01T06:10:33.213Z,72.77
2023-03-01T06:12:59.917Z,73.78
2023-03-01T06:15:27.231Z,74.90
2023-03-01T06:17:59.934Z,74.14
2023-03-01T06:20:28.739Z,73.78
2023-03-01T06:22:55.701Z,73.98
2023-03-01T06:25:24.534Z,73.88
2023-03-01T06:27:53.210Z,73.77
2023-03-01T06:30:22.013Z,74.53
2023-03-01T06:32:51.419Z,74.74
2023-03-01T06:35:19.065Z,73.52
2023-03-01T06:37:46.563Z,72.08
2023-03-01T06:40:14.772Z,72.18
2023-03-01T06:42:44.042Z,73.25
2023-03-01T06:45:11.578Z,71.63
2023-03-01T06:47:38.620Z,74.43
2023-03-01T06:50:05.690Z,74.88
2023-03-01T06:52:32.868Z,71.89
2023-03-01T06:55:00.182Z,72.44
2023-03-01T06:57:27.219Z,72.86
2023-03-01T06:59:53.826Z,73.55
2023-03-01T07:02:20.384Z,73.59
2023-03-01T07:04:46.903Z,72.85
2023-03-01T07:07:13.611Z,74.11
2023-03-01T07:09:40.170Z,71.64
2023-03-01T07:12:07.300Z,70.27
2023-03-01T07:14:34.046Z,70.51
2023-03-01T07:17:00.659Z,72.50
2023-03-01T07:19:27.433Z,75.02
2023-03-01T07:21:54.067Z,74.49
2023-03-01T07:24:20.806Z,71.82
2023-03-01T07:26:51.492Z,70.81
2023-03-01T07:29:18.646Z,72.79
2023-03-01T07:31:45.508Z,70.67
2023-03-01T07:34:12.370Z,71.57
2023-03-01T07:36:40.657Z,71.69
2023-03-01T07:39:07.556Z,72.42
2023-03-01T07:41:34.411Z,73.18
2023-03-01T07:44:01.367Z,74.08
2023-03-01T07:46:28.427Z,75.29
2023-03-01T07:48:55.047Z,76.64
2023-03-01T07:51:22.278Z,76.68
2023-03-01T07:53:49.264Z,76.91
2023-03-01T07:56:19.548Z,78.01
2023-03-01T07:58:46.441Z,77.43
2023-03-01T08:01:17.563Z,78.60
2023-03-01T08:03:44.980Z,78.39
2023-03-01T08:06:13.429Z,79.30
2023-03-01T08:08:40.042Z,78.30
2023-03-01T08:11:08.242Z,77.71
2023-03-01T08:13:35.317Z,78.33
2023-03-01T08:16:03.820Z,77.04
2023-03-01T08:18:30.487Z,77.81
2023-03-01T08:21:01.908Z,77.58
2023-03-01T08:23:28.479Z,76.60
2023-03-01T08:25:55.184Z,75.95
2023-03-01T08:28:22.003Z,76.34
2023-03-01T08:30:48.543Z,77.00
2023-03-01T08:33:15.080Z,76.68
2023-03-01T08:35:41.909Z,75.39
2023-03-01T08:38:08.500Z,79.78
2023-03-01T08:40:35.004Z,80.41
2023-03-01T08:43:01.573Z,76.76
2023-03-01T08:45:28.210Z,76.57
2023-03-01T08:47:54.851Z,75.48
2023-03-01T08:50:23.892Z,73.83
2023-03-01T08:52:50.582Z,73.84
2023-03-01T08:55:18.218Z,75.15
2023-03-01T08:57:54.210Z,76.75
2023-03-01T09:00:21.465Z,73.81
2023-03-01T09:02:55.851Z,73.71
2023-03-01T09:05:22.448Z,73.36
2023-03-01T09:07:49.003Z,73.53
2023-03-01T09:10:16.293Z,74.31
2023-03-01T09:12:43.330Z,75.32
2023-03-01T09:15:10.470Z,74.08
2023-03-01T09:17:37.519Z,76.35
2023-03-01T09:20:06.650Z,75.41
2023-03-01T09:22:35.511Z,74.84
2023-03-01T09:25:02.437Z,69.67
2023-03-01T09:27:29.595Z,73.50
2023-03-01T09:29:57.554Z,71.23
2023-03-01T09:32:24.375Z,71.93
2023-03-01T09:35:05.832Z,73.09
2023-03-01T09:37:38.500Z,72.70
2023-03-01T09:40:06.877Z,71.16
2023-03-01T09:42:36.528Z,70.55
2023-03-01T09:45:07.232Z,73.76
2023-03-01T09:47:36.659Z,69.75
2023-03-01T09:50:12.364Z,69.84
2023-03-01T09:52:54.025Z,67.41
2023-03-01T09:55:32.297Z,66.94
2023-03-01T09:58:03.802Z,69.59
2023-03-01T10:00:52.440Z,70.58
2023-03-01T10:03:25.107Z,71.97
2023-03-01T10:06:02.905Z,69.08
2023-03-01T10:08:40.155Z,70.66
2023-03-01T10:11:23.287Z,70.52
2023-03-01T10:14:19.597Z,66.99
2023-03-01T10:17:04.744Z,68.60
2023-03-01T10:19:34.281Z,66.52
2023-03-01T10:22:16.522Z,65.87
2023-03-01T10:24:44.446Z,62.43
2023-03-01T10:27:23.704Z,66.16
2023-03-01T10:30:18.002Z,67.03
2023-03-01T10:32:45.597Z,64.97
2023-03-01T10:35:24.809Z,62.43
2023-03-01T10:38:14.523Z,59.04
2023-03-01T10:40:59.666Z,62.35
2023-03-01T10:43:31.856Z,65.50
2023-03-01T10:45:58.596Z,65.03
2023-03-01T10:48:29.723Z,62.84
2023-03-01T10:50:59.388Z,62.80
2023-03-01T10:53:33.316Z,62.27
2023-03-01T10:56:11.700Z,58.92
2023-03-01T10:58:41.487Z,59.18
2023-03-01T11:01:34.012Z,59.10
2023-03-01T11:04:06.923Z,61.53
2023-03-01T11:06:38.652Z,58.18
2023-03-01T11:09:19.501Z,58.99
2023-03-01T11:11:46.897Z,59.90
2023-03-01T11:14:29.400Z,56.96
2023-03-01T11:17:01.166Z,56.94
2023-03-01T11:19:27.814Z,56.97
2023-03-01T11:22:15.346Z,57.28
2023-03-01T11:24:46.165Z,57.98
2023-03-01T11:27:33.283Z,55.14
2023-03-01T11:30:05.876Z,54.98
2023-03-01T11:32:42.837Z,55.73
2023-03-01T11:35:19.354Z,53.92
2023-03-01T11:37:55.666Z,53.54
2023-03-01T11:40:28.978Z,53.30
2023-03-01T11:43:20.557Z,48.88
2023-03-01T11:45:53.859Z,52.88
2023-03-01T11:48:47.110Z,52.81
2023-03-01T11:51:43.651Z,52.93
2023-03-01T11:54:32.085Z,46.68
2023-03-01T11:57:12.636Z,51.32
2023-03-01T11:59:52.732Z,46.84
2023-03-01T12:02:41.266Z,51.91
2023-03-01T12:05:20.608Z,51.36
2023-03-01T12:08:12.001Z,49.13
2023-03-01T12:10:58.153Z,49.14
2023-03-01T12:13:52.940Z,50.30
2023-03-01T12:16:39.966Z,46.39
2023-03-01T12:19:16.955Z,49.12
2023-03-01T12:22:00.342Z,50.78
2023-03-01T12:24:55.670Z,48.25
2023-03-01T12:27:52.396Z,49.39
2023-03-01T12:30:37.645Z,47.20
2023-03-01T12:33:12.034Z,48.14
2023-03-01T12:36:03.899Z,49.00
2023-03-01T12:38:42.319Z,46.94
2023-03-01T12:41:18.122Z,48.47
2023-03-01T12:44:05.272Z,47.82
2023-03-01T12:46:34.849Z,45.90
2023-03-01T12:49:14.493Z,44.25
2023-03-01T12:51:45.433Z,46.34
2023-03-01T12:54:17.837Z,46.85
2023-03-01T12:56:55.996Z,47.09
2023-03-01T12:59:27.954Z,46.86
2023-03-01T13:01:54.442Z,48.12
2023-03-01T13:04:35.397Z,47.56
2023-03-01T13:07:17.259Z,46.47
2023-03-01T13:09:56.879Z,47.15
2023-03-01T13:13:02.658Z,45.25
2023-03-01T13:15:31.996Z,46.84
2023-03-01T13:18:00.981Z,46.01
2023-03-01T13:20:46.903Z,45.08
2023-03-01T13:23:22.749Z,44.81
2023-03-01T13:25:58.887Z,45.29
2023-03-01T13:28:49.208Z,46.02
2023-03-01T13:31:21.705Z,45.59
2023-03-01T13:33:52.831Z,44.27
2023-03-01T13:36:28.615Z,45.56
2023-03-01T13:38:56.325Z,43.46
2023-03-01T13:41:40.655Z,44.92
2023-03-01T13:44:22.508Z,44.76
2023-03-01T13:46:51.987Z,45.48
2023-03-01T13:49:22.822Z,42.50
2023-03-01T13:51:50.944Z,42.27
2023-03-01T13:54:27.518Z,45.32
2023-03-01T13:56:55.134Z,44.38
2023-03-01T13:59:23.482Z,43.62
2023-03-01T14:01:56.473Z,44.48
2023-03-01T14:04:26.790Z,43.51
2023-03-01T14:07:09.302Z,43.61
2023-03-01T14:09:41.833Z,43.62
2023-03-01T14:12:23.321Z,43.87
2023-03-01T14:14:58.971Z,43.07
2023-03-01T14:17:42.038Z,42.28
2023-03-01T14:20:19.501Z,42.32
2023-03-01T14:22:47.594Z,41.92
2023-03-01T14:25:27.052Z,42.56
2023-03-01T14:28:18.535Z,41.78
2023-03-01T14:30:47.879Z,42.80
2023-03-01T14:33:27.524Z,42.85
2023-03-01T14:36:09.373Z,42.79
2023-03-01T14:38:37.279Z,40.30
2023-03-01T14:41:09.514Z,42.92
2023-03-01T14:43:39.827Z,41.78
2023-03-01T14:46:06.511Z,42.50
2023-03-01T14:48:33.527Z,42.55
2023-03-01T14:51:01.160Z,42.63
2023-03-01T14:53:34.098Z,42.08
2023-03-01T14:56:04.584Z,42.14
2023-03-01T14:58:34.455Z,42.28
2023-03-01T15:01:04.096Z,42.37
2023-03-01T15:03:44.913Z,41.99
2023-03-01T15:06:15.319Z,42.94
2023-03-01T15:08:47.920Z,42.74
2023-03-01T15:11:14.751Z,43.28
2023-03-01T15:13:41.824Z,41.90
2023-03-01T15:16:23.170Z,42.24
2023-03-01T15:18:59.171Z,42.32
2023-03-01T15:21:30.149Z,42.10
2023-03-01T15:24:20.686Z,41.34
2023-03-01T15:27:02.836Z,41.75
2023-03-01T15:29:31.360Z,42.13
2023-03-01T15:32:05.085Z,41.71
2023-03-01T15:34:40.134Z,40.37
2023-03-01T15:37:28.433Z,42.24
2023-03-01T15:39:58.297Z,41.86
2023-03-01T15:42:30.547Z,42.57
2023-03-01T15:45:12.844Z,42.90
2023-03-01T15:47:42.097Z,42.93
2023-03-01T15:50:21.771Z,42.69
2023-03-01T15:52:48.674Z,42.75
2023-03-01T15:55:20.062Z,42.96
2023-03-01T15:57:47.155Z,43.14
2023-03-01T16:00:15.040Z,42.63
2023-03-01T16:02:47.431Z,42.71
2023-03-01T16:05:21.011Z,42.82
2023-03-01T16:07:47.760Z,43.45
2023-03-01T16:10:14.583Z,43.71
2023-03-01T16:12:41.402Z,43.43
2023-03-01T16:15:25.026Z,43.37
2023-03-01T16:17:53.309Z,42.92
2023-03-01T16:20:28.085Z,43.34
2023-03-01T16:22:55.746Z,43.64
2023-03-01T16:25:22.893Z,43.55
2023-03-01T16:27:51.648Z,43.96
2023-03-01T16:30:21.452Z,44.15
2023-03-01T16:32:49.277Z,44.32
2023-03-01T16:35:19.192Z,44.14
2023-03-01T16:37:46.342Z,44.24
2023-03-01T16:40:20.238Z,44.12
2023-03-01T16:42:47.015Z,44.00
2023-03-01T16:45:23.500Z,43.87
2023-03-01T16:47:52.110Z,43.91
2023-03-01T16:50:20.252Z,44.09
2023-03-01T16:52:46.913Z,43.96
2023-03-01T16:55:14.700Z,44.17
2023-03-01T16:57:41.757Z,44.61
2023-03-01T17:00:14.220Z,44.55
2023-03-01T17:02:42.412Z,44.78
2023-03-01T17:05:11.058Z,44.79
2023-03-01T17:07:38.320Z,44.56
2023-03-01T17:10:08.949Z,44.61
2023-03-01T17:12:36.156Z,44.40
2023-03-01T17:15:04.004Z,44.66
2023-03-01T17:17:31.266Z,44.59
2023-03-01T17:19:58.211Z,44.73
2023-03-01T17:22:24.977Z,45.00
2023-03-01T17:24:51.565Z,44.95
2023-03-01T17:27:18.598Z,44.73
2023-03-01T17:29:45.768Z,44.76
2023-03-01T17:32:12.646Z,44.99
2023-03-01T17:34:39.346Z,45.10
2023-03-01T17:37:06.025Z,45.44
2023-03-01T17:39:36.660Z,45.25
2023-03-01T17:42:06.416Z,45.22
2023-03-01T17:44:36.610Z,45.43
2023-03-01T17:47:04.636Z,45.63
2023-03-01T17:49:31.746Z,45.62
2023-03-01T17:51:59.055Z,45.74
2023-03-01T17:54:25.876Z,45.67
2023-03-01T17:56:52.516Z,45.99
2023-03-01T17:59:19.770Z,45.87
2023-03-01T18:01:46.836Z,46.14
2023-03-01T18:04:14.264Z,46.26
2023-03-01T18:06:41.202Z,46.48
2023-03-01T18:09:08.549Z,46.32
2023-03-01T18:11:36.247Z,46.55
2023-03-01T18:14:03.648Z,46.58
2023-03-01T18:16:32.026Z,46.39
2023-03-01T18:19:00.501Z,46.69
2023-03-01T18:21:28.670Z,46.70
2023-03-01T18:23:55.924Z,46.94
2023-03-01T18:26:27.335Z,46.81
2023-03-01T18:28:58.232Z,47.01
2023-03-01T18:31:25.680Z,47.19
2023-03-01T18:33:57.091Z,47.07
2023-03-01T18:36:26.875Z,47.20
2023-03-01T18:38:56.428Z,47.06
2023-03-01T18:41:25.098Z,47.25
2023-03-01T18:43:52.636Z,47.32
2023-03-01T18:46:20.500Z,47.45
2023-03-01T18:48:47.724Z,47.74
2023-03-01T18:51:17.706Z,47.66
2023-03-01T18:53:44.684Z,47.66
2023-03-01T18:56:12.205Z,47.74
2023-03-01T18:58:39.232Z,47.84
2023-03-01T19:01:12.428Z,47.80
2023-03-01T19:03:39.229Z,48.31
2023-03-01T19:06:05.863Z,48.16
2023-03-01T19:08:32.962Z,48.05
2023-03-01T19:11:02.476Z,48.14
2023-03-01T19:13:30.607Z,48.06
2023-03-01T19:16:07.014Z,48.73
2023-03-01T19:18:34.629Z,48.32
2023-03-01T19:21:04.492Z,48.58
2023-03-01T19:23:34.827Z,48.49
2023-03-01T19:26:10.969Z,48.70
2023-03-01T19:28:39.552Z,48.87
2023-03-01T19:31:09.981Z,48.99
2023-03-01T19:33:37.586Z,49.15
2023-03-01T19:36:04.927Z,48.99
2023-03-01T19:38:31.741Z,48.92
2023-03-01T19:40:58.510Z,49.13
2023-03-01T19:43:26.626Z,49.04
2023-03-01T19:45:55.206Z,49.57
2023-03-01T19:48:22.840Z,49.29
2023-03-01T19:50:52.271Z,49.56
2023-03-01T19:53:19.335Z,49.81
2023-03-01T19:55:45.955Z,49.85
2023-03-01T19:58:12.958Z,49.46
2023-03-01T20:00:40.674Z,49.70
2023-03-01T20:03:07.524Z,49.67
2023-03-01T20:05:35.972Z,49.91
2023-03-01T20:08:03.590Z,50.01
2023-03-01T20:10:32.058Z,50.39
2023-03-01T20:12:58.713Z,50.18
2023-03-01T20:15:26.158Z,50.63
2023-03-01T20:17:53.250Z,50.59
2023-03-01T20:20:20.168Z,50.82
2023-03-01T20:22:47.586Z,51.21
2023-03-01T20:25:14.454Z,51.28
2023-03-01T20:27:41.336Z,51.37
2023-03-01T20:30:08.901Z,51.13
2023-03-01T20:32:35.726Z,51.59
2023-03-01T20:35:03.191Z,51.72
2023-03-01T20:37:29.869Z,51.54
2023-03-01T20:39:56.473Z,51.87
2023-03-01T20:42:23.057Z,52.05
2023-03-01T20:44:49.571Z,51.99
2023-03-01T20:47:16.681Z,52.21
2023-03-01T20:49:43.357Z,52.18
2023-03-01T20:52:10.332Z,52.59
2023-03-01T20:54:37.151Z,52.36
2023-03-01T20:57:03.915Z,52.73
2023-03-01T20:59:30.558Z,52.31
2023-03-01T21:01:57.349Z,52.89
2023-03-01T21:04:23.922Z,52.89
2023-03-01T21:06:50.700Z,52.51
2023-03-01T21:09:17.404Z,53.12
2023-03-01T21:11:44.083Z,52.04
2023-03-01T21:14:12.507Z,52.30
2023-03-01T21:16:39.337Z,51.98
2023-03-01T21:19:06.117Z,52.17
2023-03-01T21:21:32.940Z,52.27
2023-03-01T21:23:59.720Z,51.75
2023-03-01T21:26:27.451Z,52.38
2023-03-01T21:29:00.275Z,52.10
2023-03-01T21:31:33.985Z,50.33
2023-03-01T21:34:04.244Z,50.60
2023-03-01T21:36:33.801Z,52.42
2023-03-01T21:39:03.864Z,52.27
2023-03-01T21:41:33.948Z,52.62
2023-03-01T21:44:03.193Z,53.17
2023-03-01T21:46:33.150Z,53.08
2023-03-01T21:49:00.218Z,54.34
2023-03-01T21:51:27.782Z,55.76
2023-03-01T21:53:55.860Z,54.47
2023-03-01T21:56:24.929Z,58.37
2023-03-01T21:58:52.173Z,54.71
2023-03-01T22:01:21.845Z,57.00
2023-03-01T22:03:48.702Z,57.28
2023-03-01T22:06:19.486Z,56.72
2023-03-01T22:08:55.862Z,55.52
2023-03-01T22:11:25.969Z,60.75
2023-03-01T22:13:53.830Z,58.84
2023-03-01T22:16:24.120Z,58.61
2023-03-01T22:18:51.415Z,60.65
2023-03-01T22:21:18.478Z,62.33
2023-03-01T22:23:45.292Z,59.32
2023-03-01T22:26:28.736Z,63.82
2023-03-01T22:28:58.073Z,60.52
2023-03-01T22:31:26.098Z,63.04
2023-03-01T22:33:54.011Z,59.90
2023-03-01T22:36:21.407Z,64.73
2023-03-01T22:38:48.299Z,61.96
2023-03-01T22:41:15.321Z,60.90
2023-03-01T22:43:42.088Z,60.86
2023-03-01T22:46:12.630Z,64.30
2023-03-01T22:48:39.462Z,62.98
2023-03-01T22:51:06.323Z,64.08
2023-03-01T22:53:33.370Z,64.74
2023-03-01T22:56:00.111Z,63.05
2023-03-01T22:58:26.825Z,63.08
2023-03-01T23:00:53.710Z,64.19
2023-03-01T23:03:20.584Z,67.78
2023-03-01T23:05:47.294Z,61.96
2023-03-01T23:08:13.925Z,62.46
2023-03-01T23:10:41.748Z,61.06
2023-03-01T23:13:08.436Z,63.12
2023-03-01T23:15:35.058Z,63.22
2023-03-01T23:18:01.776Z,62.27
2023-03-01T23:20:28.547Z,62.80
2023-03-01T23:23:01.489Z,62.82
2023-03-01T23:25:28.733Z,63.61
2023-03-01T23:27:55.751Z,63.68
2023-03-01T23:30:22.698Z,63.15
2023-03-01T23:32:50.481Z,62.55
2023-03-01T23:35:17.226Z,66.86
2023-03-01T23:37:45.490Z,62.98
2023-03-01T23:40:13.190Z,63.78
2023-03-01T23:42:40.739Z,64.62
2023-03-01T23:45:08.891Z,67.65
2023-03-01T23:47:36.185Z,66.78
2023-03-01T23:50:03.234Z,65.29
2023-03-01T23:52:36.509Z,64.49
2023-03-01T23:55:03.353Z,65.35
2023-03-01T23:57:30.273Z,66.22
2023-03-01T23:59:57.025Z,65.30
